sensor_id;sensor_type;location;lat;lon;timestamp;P1;durP1;ratioP1;P2;durP2;ratioP2
53521;SDS011;39398;48.382;9.802;2022-08-01T00:00:05;1.77;;;1.60;;
53521;SDS011;39398;48.382;9.802;2022-08-01T00:01:11;1.63;;;1.52;;
53521;SDS011;39398;48.382;9.802;2022-08-01T00:02:13;2.90;;;1.45;;
53521;SDS011;39398;48.382;9.802;2022-08-01T00:03:14;1.95;;;1.70;;
53521;SDS011;39398;48.382;9.802;2022-08-01T00:04:16;2.55;;;1.40;;
53521;SDS011;39398;48.382;9.802;2022-08-01T00:05:17;1.55;;;1.40;;
53521;SDS011;39398;48.382;9.802;2022-08-01T00:06:20;2.10;;;1.88;;
53521;SDS011;39398;48.382;9.802;2022-08-01T00:07:22;2.60;;;1.80;;
53521;SDS011;39398;48.382;9.802;2022-08-01T00:08:23;4.47;;;1.80;;
53521;SDS011;39398;48.382;9.802;2022-08-01T00:09:25;2.22;;;1.60;;
53521;SDS011;39398;48.382;9.802;2022-08-01T00:10:26;3.00;;;1.90;;
53521;SDS011;39398;48.382;9.802;2022-08-01T00:11:28;2.08;;;1.60;;
53521;SDS011;39398;48.382;9.802;2022-08-01T00:12:30;1.95;;;1.58;;
53521;SDS011;39398;48.382;9.802;2022-08-01T00:13:31;1.77;;;1.50;;
53521;SDS011;39398;48.382;9.802;2022-08-01T00:14:33;4.13;;;1.70;;
53521;SDS011;39398;48.382;9.802;2022-08-01T00:15:34;1.80;;;1.70;;
53521;SDS011;39398;48.382;9.802;2022-08-01T00:16:36;1.50;;;1.40;;
53521;SDS011;39398;48.382;9.802;2022-08-01T00:17:38;2.00;;;1.80;;
53521;SDS011;39398;48.382;9.802;2022-08-01T00:18:40;1.95;;;1.70;;
53521;SDS011;39398;48.382;9.802;2022-08-01T00:19:42;2.80;;;1.40;;
53521;SDS011;39398;48.382;9.802;2022-08-01T00:20:43;5.90;;;1.88;;
53521;SDS011;39398;48.382;9.802;2022-08-01T00:21:46;2.30;;;1.67;;
53521;SDS011;39398;48.382;9.802;2022-08-01T00:22:52;2.95;;;1.58;;
53521;SDS011;39398;48.382;9.802;2022-08-01T00:23:54;2.38;;;1.52;;
53521;SDS011;39398;48.382;9.802;2022-08-01T00:24:55;3.00;;;1.83;;
53521;SDS011;39398;48.382;9.802;2022-08-01T00:25:57;3.33;;;1.63;;
53521;SDS011;39398;48.382;9.802;2022-08-01T00:26:58;2.63;;;1.83;;
53521;SDS011;39398;48.382;9.802;2022-08-01T00:28:00;2.40;;;1.90;;
53521;SDS011;39398;48.382;9.802;2022-08-01T00:29:01;1.33;;;1.23;;
53521;SDS011;39398;48.382;9.802;2022-08-01T00:30:11;3.33;;;1.70;;
53521;SDS011;39398;48.382;9.802;2022-08-01T00:31:15;1.80;;;1.40;;
53521;SDS011;39398;48.382;9.802;2022-08-01T00:32:16;3.17;;;1.65;;
53521;SDS011;39398;48.382;9.802;2022-08-01T00:33:18;1.83;;;1.73;;
53521;SDS011;39398;48.382;9.802;2022-08-01T00:34:20;3.30;;;1.88;;
53521;SDS011;39398;48.382;9.802;2022-08-01T00:35:21;1.85;;;1.67;;
53521;SDS011;39398;48.382;9.802;2022-08-01T00:36:23;2.33;;;2.00;;
53521;SDS011;39398;48.382;9.802;2022-08-01T00:37:25;3.50;;;1.65;;
53521;SDS011;39398;48.382;9.802;2022-08-01T00:38:27;3.97;;;1.77;;
53521;SDS011;39398;48.382;9.802;2022-08-01T00:39:28;1.60;;;1.50;;
53521;SDS011;39398;48.382;9.802;2022-08-01T00:40:30;2.42;;;1.75;;
53521;SDS011;39398;48.382;9.802;2022-08-01T00:41:31;3.28;;;1.63;;
53521;SDS011;39398;48.382;9.802;2022-08-01T00:42:33;3.92;;;1.98;;
53521;SDS011;39398;48.382;9.802;2022-08-01T00:43:34;3.13;;;1.90;;
53521;SDS011;39398;48.382;9.802;2022-08-01T00:44:36;1.75;;;1.65;;
53521;SDS011;39398;48.382;9.802;2022-08-01T00:45:38;2.70;;;1.58;;
53521;SDS011;39398;48.382;9.802;2022-08-01T00:46:39;3.60;;;1.90;;
53521;SDS011;39398;48.382;9.802;2022-08-01T00:47:41;1.80;;;1.70;;
53521;SDS011;39398;48.382;9.802;2022-08-01T00:48:42;2.53;;;1.70;;
53521;SDS011;39398;48.382;9.802;2022-08-01T00:49:44;1.98;;;1.75;;
53521;SDS011;39398;48.382;9.802;2022-08-01T00:50:46;3.10;;;1.70;;
53521;SDS011;39398;48.382;9.802;2022-08-01T00:51:47;1.77;;;1.55;;
53521;SDS011;39398;48.382;9.802;2022-08-01T00:52:50;3.35;;;1.90;;
53521;SDS011;39398;48.382;9.802;2022-08-01T00:53:52;2.47;;;1.70;;
53521;SDS011;39398;48.382;9.802;2022-08-01T00:54:55;1.98;;;1.85;;
53521;SDS011;39398;48.382;9.802;2022-08-01T00:55:56;3.00;;;2.10;;
53521;SDS011;39398;48.382;9.802;2022-08-01T00:56:58;1.85;;;1.70;;
53521;SDS011;39398;48.382;9.802;2022-08-01T00:57:59;2.42;;;1.80;;
53521;SDS011;39398;48.382;9.802;2022-08-01T00:59:06;1.88;;;1.60;;
53521;SDS011;39398;48.382;9.802;2022-08-01T01:00:09;2.28;;;1.80;;
53521;SDS011;39398;48.382;9.802;2022-08-01T01:01:12;1.80;;;1.70;;
53521;SDS011;39398;48.382;9.802;2022-08-01T01:02:14;3.80;;;1.70;;
53521;SDS011;39398;48.382;9.802;2022-08-01T01:03:16;3.72;;;1.95;;
53521;SDS011;39398;48.382;9.802;2022-08-01T01:04:17;1.90;;;1.70;;
53521;SDS011;39398;48.382;9.802;2022-08-01T01:05:19;2.15;;;1.90;;
53521;SDS011;39398;48.382;9.802;2022-08-01T01:06:23;4.05;;;2.08;;
53521;SDS011;39398;48.382;9.802;2022-08-01T01:07:31;3.25;;;2.10;;
53521;SDS011;39398;48.382;9.802;2022-08-01T01:09:03;2.50;;;1.70;;
53521;SDS011;39398;48.382;9.802;2022-08-01T01:10:15;1.92;;;1.80;;
53521;SDS011;39398;48.382;9.802;2022-08-01T01:11:20;2.15;;;1.50;;
53521;SDS011;39398;48.382;9.802;2022-08-01T01:12:27;1.98;;;1.83;;
53521;SDS011;39398;48.382;9.802;2022-08-01T01:13:41;2.40;;;2.10;;
53521;SDS011;39398;48.382;9.802;2022-08-01T01:14:52;7.00;;;2.20;;
53521;SDS011;39398;48.382;9.802;2022-08-01T01:15:58;2.50;;;2.00;;
53521;SDS011;39398;48.382;9.802;2022-08-01T01:17:01;2.72;;;1.60;;
53521;SDS011;39398;48.382;9.802;2022-08-01T01:18:04;3.53;;;2.10;;
53521;SDS011;39398;48.382;9.802;2022-08-01T01:19:13;1.90;;;1.80;;
53521;SDS011;39398;48.382;9.802;2022-08-01T01:20:23;2.50;;;1.92;;
53521;SDS011;39398;48.382;9.802;2022-08-01T01:21:50;1.73;;;1.63;;
53521;SDS011;39398;48.382;9.802;2022-08-01T01:23:07;2.42;;;2.00;;
53521;SDS011;39398;48.382;9.802;2022-08-01T01:24:19;2.88;;;1.67;;
53521;SDS011;39398;48.382;9.802;2022-08-01T01:25:40;2.10;;;1.77;;
53521;SDS011;39398;48.382;9.802;2022-08-01T01:26:52;2.20;;;1.95;;
53521;SDS011;39398;48.382;9.802;2022-08-01T01:28:02;2.25;;;1.80;;
53521;SDS011;39398;48.382;9.802;2022-08-01T01:29:17;2.28;;;2.08;;
53521;SDS011;39398;48.382;9.802;2022-08-01T01:30:24;2.00;;;1.80;;
53521;SDS011;39398;48.382;9.802;2022-08-01T01:31:30;5.00;;;2.13;;
53521;SDS011;39398;48.382;9.802;2022-08-01T01:32:35;3.75;;;1.90;;
53521;SDS011;39398;48.382;9.802;2022-08-01T01:33:39;2.15;;;1.95;;
53521;SDS011;39398;48.382;9.802;2022-08-01T01:34:48;3.42;;;1.98;;
53521;SDS011;39398;48.382;9.802;2022-08-01T01:35:52;2.10;;;2.00;;
53521;SDS011;39398;48.382;9.802;2022-08-01T01:36:58;2.25;;;1.67;;
53521;SDS011;39398;48.382;9.802;2022-08-01T01:38:04;2.95;;;1.88;;
53521;SDS011;39398;48.382;9.802;2022-08-01T01:39:09;7.80;;;2.15;;
53521;SDS011;39398;48.382;9.802;2022-08-01T01:40:12;2.13;;;1.92;;
53521;SDS011;39398;48.382;9.802;2022-08-01T01:41:17;4.22;;;1.80;;
53521;SDS011;39398;48.382;9.802;2022-08-01T01:42:19;2.78;;;2.40;;
53521;SDS011;39398;48.382;9.802;2022-08-01T01:43:25;2.30;;;2.10;;
53521;SDS011;39398;48.382;9.802;2022-08-01T01:44:35;3.65;;;2.53;;
53521;SDS011;39398;48.382;9.802;2022-08-01T01:45:38;4.07;;;2.03;;
53521;SDS011;39398;48.382;9.802;2022-08-01T01:46:41;3.30;;;2.08;;
53521;SDS011;39398;48.382;9.802;2022-08-01T01:47:43;2.63;;;2.05;;
53521;SDS011;39398;48.382;9.802;2022-08-01T01:48:46;2.30;;;2.10;;
53521;SDS011;39398;48.382;9.802;2022-08-01T01:49:48;2.55;;;2.00;;
53521;SDS011;39398;48.382;9.802;2022-08-01T01:50:52;4.97;;;2.25;;
53521;SDS011;39398;48.382;9.802;2022-08-01T01:51:54;2.63;;;2.10;;
53521;SDS011;39398;48.382;9.802;2022-08-01T01:53:03;3.05;;;2.03;;
53521;SDS011;39398;48.382;9.802;2022-08-01T01:54:15;3.97;;;2.08;;
53521;SDS011;39398;48.382;9.802;2022-08-01T01:55:18;3.55;;;2.10;;
53521;SDS011;39398;48.382;9.802;2022-08-01T01:56:23;2.50;;;1.90;;
53521;SDS011;39398;48.382;9.802;2022-08-01T01:57:27;1.90;;;1.80;;
53521;SDS011;39398;48.382;9.802;2022-08-01T01:58:30;1.83;;;1.73;;
53521;SDS011;39398;48.382;9.802;2022-08-01T01:59:36;2.15;;;1.92;;
53521;SDS011;39398;48.382;9.802;2022-08-01T02:00:40;4.03;;;2.20;;
53521;SDS011;39398;48.382;9.802;2022-08-01T02:01:45;2.15;;;2.05;;
53521;SDS011;39398;48.382;9.802;2022-08-01T02:03:06;2.75;;;2.10;;
53521;SDS011;39398;48.382;9.802;2022-08-01T02:04:10;3.92;;;2.17;;
53521;SDS011;39398;48.382;9.802;2022-08-01T02:05:12;4.32;;;2.17;;
53521;SDS011;39398;48.382;9.802;2022-08-01T02:06:14;3.33;;;1.92;;
53521;SDS011;39398;48.382;9.802;2022-08-01T02:07:19;3.38;;;2.00;;
53521;SDS011;39398;48.382;9.802;2022-08-01T02:08:23;4.88;;;1.98;;
53521;SDS011;39398;48.382;9.802;2022-08-01T02:09:26;3.70;;;2.15;;
53521;SDS011;39398;48.382;9.802;2022-08-01T02:10:31;5.35;;;1.80;;
53521;SDS011;39398;48.382;9.802;2022-08-01T02:11:33;2.58;;;2.00;;
53521;SDS011;39398;48.382;9.802;2022-08-01T02:12:57;2.55;;;2.05;;
53521;SDS011;39398;48.382;9.802;2022-08-01T02:14:00;3.05;;;1.70;;
53521;SDS011;39398;48.382;9.802;2022-08-01T02:15:05;2.58;;;2.15;;
53521;SDS011;39398;48.382;9.802;2022-08-01T02:16:08;2.67;;;2.20;;
53521;SDS011;39398;48.382;9.802;2022-08-01T02:17:10;2.72;;;2.15;;
53521;SDS011;39398;48.382;9.802;2022-08-01T02:18:16;3.22;;;2.00;;
53521;SDS011;39398;48.382;9.802;2022-08-01T02:19:24;3.72;;;2.00;;
53521;SDS011;39398;48.382;9.802;2022-08-01T02:20:25;2.63;;;1.90;;
53521;SDS011;39398;48.382;9.802;2022-08-01T02:21:30;3.63;;;1.80;;
53521;SDS011;39398;48.382;9.802;2022-08-01T02:22:37;2.42;;;2.22;;
53521;SDS011;39398;48.382;9.802;2022-08-01T02:23:43;2.25;;;2.00;;
53521;SDS011;39398;48.382;9.802;2022-08-01T02:24:46;2.17;;;2.00;;
53521;SDS011;39398;48.382;9.802;2022-08-01T02:25:52;2.15;;;2.00;;
53521;SDS011;39398;48.382;9.802;2022-08-01T02:27:12;3.58;;;1.95;;
53521;SDS011;39398;48.382;9.802;2022-08-01T02:28:20;2.15;;;1.92;;
53521;SDS011;39398;48.382;9.802;2022-08-01T02:29:27;2.20;;;2.00;;
53521;SDS011;39398;48.382;9.802;2022-08-01T02:30:36;5.68;;;2.50;;
53521;SDS011;39398;48.382;9.802;2022-08-01T02:31:40;2.40;;;2.20;;
53521;SDS011;39398;48.382;9.802;2022-08-01T02:32:44;2.00;;;1.90;;
53521;SDS011;39398;48.382;9.802;2022-08-01T02:33:50;3.22;;;2.13;;
53521;SDS011;39398;48.382;9.802;2022-08-01T02:34:56;3.13;;;2.22;;
53521;SDS011;39398;48.382;9.802;2022-08-01T02:35:58;4.22;;;2.35;;
53521;SDS011;39398;48.382;9.802;2022-08-01T02:37:22;2.10;;;2.00;;
53521;SDS011;39398;48.382;9.802;2022-08-01T02:38:28;3.72;;;2.55;;
53521;SDS011;39398;48.382;9.802;2022-08-01T02:39:33;3.17;;;2.33;;
53521;SDS011;39398;48.382;9.802;2022-08-01T02:40:38;2.47;;;2.25;;
53521;SDS011;39398;48.382;9.802;2022-08-01T02:41:43;2.13;;;1.92;;
53521;SDS011;39398;48.382;9.802;2022-08-01T02:42:49;3.85;;;2.20;;
53521;SDS011;39398;48.382;9.802;2022-08-01T02:43:52;2.42;;;2.22;;
53521;SDS011;39398;48.382;9.802;2022-08-01T02:44:57;4.07;;;2.30;;
53521;SDS011;39398;48.382;9.802;2022-08-01T02:46:01;5.82;;;2.38;;
53521;SDS011;39398;48.382;9.802;2022-08-01T02:47:05;2.30;;;2.10;;
53521;SDS011;39398;48.382;9.802;2022-08-01T02:48:07;2.58;;;2.28;;
53521;SDS011;39398;48.382;9.802;2022-08-01T02:49:11;2.17;;;1.98;;
53521;SDS011;39398;48.382;9.802;2022-08-01T02:50:14;3.03;;;2.15;;
53521;SDS011;39398;48.382;9.802;2022-08-01T02:51:18;4.32;;;2.47;;
53521;SDS011;39398;48.382;9.802;2022-08-01T02:52:23;3.97;;;2.42;;
53521;SDS011;39398;48.382;9.802;2022-08-01T02:53:26;2.13;;;1.98;;
53521;SDS011;39398;48.382;9.802;2022-08-01T02:54:44;3.15;;;2.22;;
53521;SDS011;39398;48.382;9.802;2022-08-01T02:55:48;3.75;;;2.42;;
53521;SDS011;39398;48.382;9.802;2022-08-01T02:56:51;3.17;;;2.15;;
53521;SDS011;39398;48.382;9.802;2022-08-01T02:57:54;2.50;;;2.30;;
53521;SDS011;39398;48.382;9.802;2022-08-01T02:59:02;4.28;;;2.75;;
53521;SDS011;39398;48.382;9.802;2022-08-01T03:00:05;2.67;;;2.30;;
53521;SDS011;39398;48.382;9.802;2022-08-01T03:01:09;2.42;;;2.22;;
53521;SDS011;39398;48.382;9.802;2022-08-01T03:02:12;3.58;;;2.50;;
53521;SDS011;39398;48.382;9.802;2022-08-01T03:03:15;2.45;;;2.25;;
53521;SDS011;39398;48.382;9.802;2022-08-01T03:04:18;4.28;;;2.30;;
53521;SDS011;39398;48.382;9.802;2022-08-01T03:05:21;3.83;;;2.67;;
53521;SDS011;39398;48.382;9.802;2022-08-01T03:06:24;3.42;;;2.30;;
53521;SDS011;39398;48.382;9.802;2022-08-01T03:07:27;3.25;;;2.53;;
53521;SDS011;39398;48.382;9.802;2022-08-01T03:08:34;3.47;;;3.05;;
53521;SDS011;39398;48.382;9.802;2022-08-01T03:09:38;2.03;;;1.88;;
53521;SDS011;39398;48.382;9.802;2022-08-01T03:10:42;3.45;;;2.42;;
53521;SDS011;39398;48.382;9.802;2022-08-01T03:11:45;3.47;;;2.60;;
53521;SDS011;39398;48.382;9.802;2022-08-01T03:12:48;2.78;;;2.47;;
53521;SDS011;39398;48.382;9.802;2022-08-01T03:13:51;3.70;;;1.90;;
53521;SDS011;39398;48.382;9.802;2022-08-01T03:14:56;3.10;;;2.20;;
53521;SDS011;39398;48.382;9.802;2022-08-01T03:16:00;2.40;;;2.20;;
53521;SDS011;39398;48.382;9.802;2022-08-01T03:17:04;3.47;;;2.38;;
53521;SDS011;39398;48.382;9.802;2022-08-01T03:18:07;2.95;;;2.75;;
53521;SDS011;39398;48.382;9.802;2022-08-01T03:19:11;2.72;;;2.53;;
53521;SDS011;39398;48.382;9.802;2022-08-01T03:20:15;6.15;;;2.53;;
53521;SDS011;39398;48.382;9.802;2022-08-01T03:21:18;2.78;;;2.47;;
53521;SDS011;39398;48.382;9.802;2022-08-01T03:22:23;2.50;;;2.28;;
53521;SDS011;39398;48.382;9.802;2022-08-01T03:23:27;3.78;;;2.50;;
53521;SDS011;39398;48.382;9.802;2022-08-01T03:25:41;6.15;;;2.60;;
53521;SDS011;39398;48.382;9.802;2022-08-01T03:26:45;2.75;;;2.53;;
53521;SDS011;39398;48.382;9.802;2022-08-01T03:27:50;3.67;;;2.45;;
53521;SDS011;39398;48.382;9.802;2022-08-01T03:28:55;2.60;;;2.40;;
53521;SDS011;39398;48.382;9.802;2022-08-01T03:29:59;3.25;;;2.45;;
53521;SDS011;39398;48.382;9.802;2022-08-01T03:31:04;2.85;;;2.53;;
53521;SDS011;39398;48.382;9.802;2022-08-01T03:32:08;2.60;;;2.40;;
53521;SDS011;39398;48.382;9.802;2022-08-01T03:33:11;2.47;;;2.28;;
53521;SDS011;39398;48.382;9.802;2022-08-01T03:34:15;4.55;;;2.40;;
53521;SDS011;39398;48.382;9.802;2022-08-01T03:35:17;4.03;;;2.53;;
53521;SDS011;39398;48.382;9.802;2022-08-01T03:36:19;2.45;;;2.25;;
53521;SDS011;39398;48.382;9.802;2022-08-01T03:37:26;2.72;;;2.45;;
53521;SDS011;39398;48.382;9.802;2022-08-01T03:38:29;3.08;;;2.40;;
53521;SDS011;39398;48.382;9.802;2022-08-01T03:39:37;3.80;;;2.60;;
53521;SDS011;39398;48.382;9.802;2022-08-01T03:40:45;3.83;;;2.72;;
53521;SDS011;39398;48.382;9.802;2022-08-01T03:41:51;4.00;;;2.38;;
53521;SDS011;39398;48.382;9.802;2022-08-01T03:43:05;2.63;;;2.42;;
53521;SDS011;39398;48.382;9.802;2022-08-01T03:44:10;3.90;;;2.47;;
53521;SDS011;39398;48.382;9.802;2022-08-01T03:45:15;3.05;;;2.67;;
53521;SDS011;39398;48.382;9.802;2022-08-01T03:46:24;3.08;;;2.50;;
53521;SDS011;39398;48.382;9.802;2022-08-01T03:47:31;3.40;;;2.30;;
53521;SDS011;39398;48.382;9.802;2022-08-01T03:48:47;2.50;;;2.30;;
53521;SDS011;39398;48.382;9.802;2022-08-01T03:49:50;3.92;;;2.47;;
53521;SDS011;39398;48.382;9.802;2022-08-01T03:50:52;3.15;;;2.25;;
53521;SDS011;39398;48.382;9.802;2022-08-01T03:51:54;3.35;;;2.67;;
53521;SDS011;39398;48.382;9.802;2022-08-01T03:52:58;3.25;;;2.60;;
53521;SDS011;39398;48.382;9.802;2022-08-01T03:54:01;5.78;;;2.03;;
53521;SDS011;39398;48.382;9.802;2022-08-01T03:55:05;2.67;;;2.47;;
53521;SDS011;39398;48.382;9.802;2022-08-01T03:56:08;3.22;;;2.55;;
53521;SDS011;39398;48.382;9.802;2022-08-01T03:57:11;4.93;;;2.53;;
53521;SDS011;39398;48.382;9.802;2022-08-01T03:58:33;2.80;;;2.60;;
53521;SDS011;39398;48.382;9.802;2022-08-01T03:59:36;2.72;;;2.53;;
53521;SDS011;39398;48.382;9.802;2022-08-01T04:00:38;2.80;;;2.40;;
53521;SDS011;39398;48.382;9.802;2022-08-01T04:01:40;2.90;;;2.50;;
53521;SDS011;39398;48.382;9.802;2022-08-01T04:02:44;3.05;;;2.25;;
53521;SDS011;39398;48.382;9.802;2022-08-01T04:03:47;2.92;;;2.40;;
53521;SDS011;39398;48.382;9.802;2022-08-01T04:04:48;3.60;;;2.55;;
53521;SDS011;39398;48.382;9.802;2022-08-01T04:05:50;3.60;;;2.08;;
53521;SDS011;39398;48.382;9.802;2022-08-01T04:06:52;2.78;;;2.53;;
53521;SDS011;39398;48.382;9.802;2022-08-01T04:07:53;3.00;;;2.35;;
53521;SDS011;39398;48.382;9.802;2022-08-01T04:08:54;3.70;;;2.60;;
53521;SDS011;39398;48.382;9.802;2022-08-01T04:09:57;4.97;;;2.88;;
53521;SDS011;39398;48.382;9.802;2022-08-01T04:10:58;2.60;;;2.40;;
53521;SDS011;39398;48.382;9.802;2022-08-01T04:12:00;4.00;;;2.85;;
53521;SDS011;39398;48.382;9.802;2022-08-01T04:13:12;3.83;;;2.65;;
53521;SDS011;39398;48.382;9.802;2022-08-01T04:14:14;3.92;;;2.83;;
53521;SDS011;39398;48.382;9.802;2022-08-01T04:15:15;2.63;;;2.42;;
53521;SDS011;39398;48.382;9.802;2022-08-01T04:16:17;6.20;;;2.85;;
53521;SDS011;39398;48.382;9.802;2022-08-01T04:17:19;3.00;;;2.45;;
53521;SDS011;39398;48.382;9.802;2022-08-01T04:18:22;3.13;;;2.83;;
53521;SDS011;39398;48.382;9.802;2022-08-01T04:19:23;3.97;;;3.00;;
53521;SDS011;39398;48.382;9.802;2022-08-01T04:20:25;2.95;;;2.60;;
53521;SDS011;39398;48.382;9.802;2022-08-01T04:21:27;4.40;;;2.83;;
53521;SDS011;39398;48.382;9.802;2022-08-01T04:22:32;2.88;;;2.50;;
53521;SDS011;39398;48.382;9.802;2022-08-01T04:23:37;4.10;;;3.10;;
53521;SDS011;39398;48.382;9.802;2022-08-01T04:24:42;3.10;;;2.80;;
53521;SDS011;39398;48.382;9.802;2022-08-01T04:25:47;3.15;;;2.83;;
53521;SDS011;39398;48.382;9.802;2022-08-01T04:26:51;2.97;;;2.67;;
53521;SDS011;39398;48.382;9.802;2022-08-01T04:27:53;4.30;;;2.40;;
53521;SDS011;39398;48.382;9.802;2022-08-01T04:28:55;3.42;;;2.85;;
53521;SDS011;39398;48.382;9.802;2022-08-01T04:29:57;3.38;;;2.53;;
53521;SDS011;39398;48.382;9.802;2022-08-01T04:31:00;3.13;;;2.72;;
53521;SDS011;39398;48.382;9.802;2022-08-01T04:32:02;3.30;;;2.80;;
53521;SDS011;39398;48.382;9.802;2022-08-01T04:33:07;5.93;;;2.70;;
53521;SDS011;39398;48.382;9.802;2022-08-01T04:34:12;5.80;;;2.90;;
53521;SDS011;39398;48.382;9.802;2022-08-01T04:35:16;2.70;;;2.50;;
53521;SDS011;39398;48.382;9.802;2022-08-01T04:36:41;3.30;;;2.88;;
53521;SDS011;39398;48.382;9.802;2022-08-01T04:37:43;4.20;;;2.80;;
53521;SDS011;39398;48.382;9.802;2022-08-01T04:38:48;3.63;;;3.10;;
53521;SDS011;39398;48.382;9.802;2022-08-01T04:39:53;3.40;;;3.03;;
53521;SDS011;39398;48.382;9.802;2022-08-01T04:40:56;4.35;;;3.10;;
53521;SDS011;39398;48.382;9.802;2022-08-01T04:41:58;3.95;;;2.95;;
53521;SDS011;39398;48.382;9.802;2022-08-01T04:43:01;4.30;;;2.80;;
53521;SDS011;39398;48.382;9.802;2022-08-01T04:44:03;3.00;;;2.63;;
53521;SDS011;39398;48.382;9.802;2022-08-01T04:45:06;2.90;;;2.60;;
53521;SDS011;39398;48.382;9.802;2022-08-01T04:46:09;4.55;;;2.80;;
53521;SDS011;39398;48.382;9.802;2022-08-01T04:47:11;3.80;;;2.53;;
53521;SDS011;39398;48.382;9.802;2022-08-01T04:48:13;4.68;;;3.13;;
53521;SDS011;39398;48.382;9.802;2022-08-01T04:49:19;4.38;;;3.00;;
53521;SDS011;39398;48.382;9.802;2022-08-01T04:50:20;3.35;;;3.05;;
53521;SDS011;39398;48.382;9.802;2022-08-01T04:51:22;2.97;;;2.78;;
53521;SDS011;39398;48.382;9.802;2022-08-01T04:52:23;6.03;;;3.28;;
53521;SDS011;39398;48.382;9.802;2022-08-01T04:53:34;6.20;;;2.97;;
53521;SDS011;39398;48.382;9.802;2022-08-01T04:54:35;3.20;;;2.90;;
53521;SDS011;39398;48.382;9.802;2022-08-01T04:55:37;3.58;;;3.28;;
53521;SDS011;39398;48.382;9.802;2022-08-01T04:56:38;6.35;;;3.20;;
53521;SDS011;39398;48.382;9.802;2022-08-01T04:57:41;3.17;;;2.50;;
53521;SDS011;39398;48.382;9.802;2022-08-01T04:58:45;3.25;;;2.92;;
53521;SDS011;39398;48.382;9.802;2022-08-01T04:59:46;6.20;;;3.10;;
53521;SDS011;39398;48.382;9.802;2022-08-01T05:00:48;7.32;;;3.55;;
53521;SDS011;39398;48.382;9.802;2022-08-01T05:01:49;3.03;;;2.72;;
53521;SDS011;39398;48.382;9.802;2022-08-01T05:02:51;3.08;;;2.78;;
53521;SDS011;39398;48.382;9.802;2022-08-01T05:03:52;3.45;;;3.15;;
53521;SDS011;39398;48.382;9.802;2022-08-01T05:04:55;4.20;;;2.80;;
53521;SDS011;39398;48.382;9.802;2022-08-01T05:05:57;3.30;;;3.00;;
53521;SDS011;39398;48.382;9.802;2022-08-01T05:06:58;3.08;;;2.80;;
53521;SDS011;39398;48.382;9.802;2022-08-01T05:08:00;2.90;;;2.70;;
53521;SDS011;39398;48.382;9.802;2022-08-01T05:09:01;4.20;;;2.85;;
53521;SDS011;39398;48.382;9.802;2022-08-01T05:10:03;3.58;;;3.30;;
53521;SDS011;39398;48.382;9.802;2022-08-01T05:11:06;3.10;;;2.80;;
53521;SDS011;39398;48.382;9.802;2022-08-01T05:12:08;3.80;;;2.85;;
53521;SDS011;39398;48.382;9.802;2022-08-01T05:13:10;4.70;;;2.90;;
53521;SDS011;39398;48.382;9.802;2022-08-01T05:14:12;4.63;;;3.15;;
53521;SDS011;39398;48.382;9.802;2022-08-01T05:15:13;3.33;;;2.65;;
53521;SDS011;39398;48.382;9.802;2022-08-01T05:16:16;3.13;;;2.80;;
53521;SDS011;39398;48.382;9.802;2022-08-01T05:17:17;3.63;;;2.80;;
53521;SDS011;39398;48.382;9.802;2022-08-01T05:18:18;4.32;;;2.88;;
53521;SDS011;39398;48.382;9.802;2022-08-01T05:19:28;3.65;;;2.65;;
53521;SDS011;39398;48.382;9.802;2022-08-01T05:20:31;3.08;;;2.70;;
53521;SDS011;39398;48.382;9.802;2022-08-01T05:21:33;3.70;;;2.70;;
53521;SDS011;39398;48.382;9.802;2022-08-01T05:22:35;3.30;;;2.90;;
53521;SDS011;39398;48.382;9.802;2022-08-01T05:23:36;3.70;;;3.00;;
53521;SDS011;39398;48.382;9.802;2022-08-01T05:24:43;4.88;;;2.92;;
53521;SDS011;39398;48.382;9.802;2022-08-01T05:25:45;3.78;;;2.60;;
53521;SDS011;39398;48.382;9.802;2022-08-01T05:26:58;4.10;;;2.75;;
53521;SDS011;39398;48.382;9.802;2022-08-01T05:28:02;3.00;;;2.80;;
53521;SDS011;39398;48.382;9.802;2022-08-01T05:29:04;3.40;;;2.70;;
53521;SDS011;39398;48.382;9.802;2022-08-01T05:30:06;3.90;;;3.08;;
53521;SDS011;39398;48.382;9.802;2022-08-01T05:31:09;4.25;;;2.65;;
53521;SDS011;39398;48.382;9.802;2022-08-01T05:32:11;3.45;;;3.10;;
53521;SDS011;39398;48.382;9.802;2022-08-01T05:33:12;3.08;;;2.45;;
53521;SDS011;39398;48.382;9.802;2022-08-01T05:34:14;3.55;;;2.50;;
53521;SDS011;39398;48.382;9.802;2022-08-01T05:35:15;2.95;;;2.53;;
53521;SDS011;39398;48.382;9.802;2022-08-01T05:36:18;2.85;;;2.60;;
53521;SDS011;39398;48.382;9.802;2022-08-01T05:37:19;2.95;;;2.72;;
53521;SDS011;39398;48.382;9.802;2022-08-01T05:38:21;3.55;;;2.40;;
53521;SDS011;39398;48.382;9.802;2022-08-01T05:39:22;2.80;;;2.60;;
53521;SDS011;39398;48.382;9.802;2022-08-01T05:40:24;4.50;;;2.50;;
53521;SDS011;39398;48.382;9.802;2022-08-01T05:41:25;4.28;;;2.88;;
53521;SDS011;39398;48.382;9.802;2022-08-01T05:42:27;4.22;;;2.67;;
53521;SDS011;39398;48.382;9.802;2022-08-01T05:43:28;3.00;;;2.63;;
53521;SDS011;39398;48.382;9.802;2022-08-01T05:44:30;2.97;;;2.70;;
53521;SDS011;39398;48.382;9.802;2022-08-01T05:45:31;3.67;;;2.60;;
53521;SDS011;39398;48.382;9.802;2022-08-01T05:46:33;2.53;;;2.33;;
53521;SDS011;39398;48.382;9.802;2022-08-01T05:47:35;2.63;;;2.42;;
53521;SDS011;39398;48.382;9.802;2022-08-01T05:48:43;2.75;;;2.55;;
53521;SDS011;39398;48.382;9.802;2022-08-01T05:49:44;2.88;;;2.63;;
53521;SDS011;39398;48.382;9.802;2022-08-01T05:50:46;2.97;;;2.67;;
53521;SDS011;39398;48.382;9.802;2022-08-01T05:51:48;4.82;;;2.70;;
53521;SDS011;39398;48.382;9.802;2022-08-01T05:52:50;2.80;;;2.60;;
53521;SDS011;39398;48.382;9.802;2022-08-01T05:53:52;3.47;;;3.00;;
53521;SDS011;39398;48.382;9.802;2022-08-01T05:54:53;4.47;;;2.65;;
53521;SDS011;39398;48.382;9.802;2022-08-01T05:55:55;2.85;;;2.40;;
53521;SDS011;39398;48.382;9.802;2022-08-01T05:56:56;2.83;;;2.33;;
53521;SDS011;39398;48.382;9.802;2022-08-01T05:57:58;2.80;;;2.60;;
53521;SDS011;39398;48.382;9.802;2022-08-01T05:58:59;3.30;;;2.47;;
53521;SDS011;39398;48.382;9.802;2022-08-01T06:00:01;2.92;;;2.33;;
53521;SDS011;39398;48.382;9.802;2022-08-01T06:01:03;2.83;;;2.40;;
53521;SDS011;39398;48.382;9.802;2022-08-01T06:02:04;2.65;;;2.45;;
53521;SDS011;39398;48.382;9.802;2022-08-01T06:03:06;2.60;;;2.40;;
53521;SDS011;39398;48.382;9.802;2022-08-01T06:04:08;2.58;;;2.38;;
53521;SDS011;39398;48.382;9.802;2022-08-01T06:05:10;3.05;;;2.38;;
53521;SDS011;39398;48.382;9.802;2022-08-01T06:06:13;2.95;;;2.30;;
53521;SDS011;39398;48.382;9.802;2022-08-01T06:07:16;2.75;;;2.28;;
53521;SDS011;39398;48.382;9.802;2022-08-01T06:08:18;2.78;;;2.50;;
53521;SDS011;39398;48.382;9.802;2022-08-01T06:09:19;5.53;;;2.55;;
53521;SDS011;39398;48.382;9.802;2022-08-01T06:10:21;4.40;;;2.63;;
53521;SDS011;39398;48.382;9.802;2022-08-01T06:11:22;2.60;;;2.00;;
53521;SDS011;39398;48.382;9.802;2022-08-01T06:12:24;2.25;;;2.05;;
53521;SDS011;39398;48.382;9.802;2022-08-01T06:13:25;2.65;;;2.20;;
53521;SDS011;39398;48.382;9.802;2022-08-01T06:14:27;3.80;;;2.40;;
53521;SDS011;39398;48.382;9.802;2022-08-01T06:15:28;7.18;;;2.40;;
53521;SDS011;39398;48.382;9.802;2022-08-01T06:16:30;2.25;;;2.05;;
53521;SDS011;39398;48.382;9.802;2022-08-01T06:17:31;3.35;;;1.90;;
53521;SDS011;39398;48.382;9.802;2022-08-01T06:18:33;2.35;;;2.00;;
53521;SDS011;39398;48.382;9.802;2022-08-01T06:19:34;2.70;;;2.38;;
53521;SDS011;39398;48.382;9.802;2022-08-01T06:20:36;2.30;;;2.05;;
53521;SDS011;39398;48.382;9.802;2022-08-01T06:21:38;3.05;;;2.20;;
53521;SDS011;39398;48.382;9.802;2022-08-01T06:22:40;2.78;;;2.58;;
53521;SDS011;39398;48.382;9.802;2022-08-01T06:23:42;2.75;;;2.30;;
53521;SDS011;39398;48.382;9.802;2022-08-01T06:24:44;3.60;;;2.45;;
53521;SDS011;39398;48.382;9.802;2022-08-01T06:25:45;3.85;;;2.10;;
53521;SDS011;39398;48.382;9.802;2022-08-01T06:26:47;4.88;;;2.30;;